Time;durP1;ratioP1;P1;durP2;ratioP2;P2;SDS_P1;SDS_P2;PMS_P1;PMS_P2;Temp;Humidity;BMP_temperature;BMP_pressure;BME280_temperature;BME280_humidity;BME280_pressure;Samples;Min_cycle;Max_cycle;Signal;HPM_P1;HPM_P2
2023/08/16 00:01:41;;;;;;;13.77;11.90;;;19.70;99.90;;;;;;5018834;28;20414;-92
2023/08/16 00:04:07;;;;;;;16.50;11.73;;;19.70;99.90;;;;;;5048042;23;20230;-96
2023/08/16 00:09:08;;;;;;;14.07;11.50;;;19.60;99.90;;;;;;5228528;23;20486;-96
2023/08/16 00:11:34;;;;;;;15.30;12.60;;;19.50;99.90;;;;;;5016969;28;20477;-96
2023/08/16 00:14:00;;;;;;;16.90;13.43;;;19.50;99.90;;;;;;5008065;28;20415;-96
2023/08/16 00:16:26;;;;;;;20.23;14.60;;;19.40;99.90;;;;;;5011173;28;20467;-95
2023/08/16 00:18:54;;;;;;;16.67;14.97;;;19.40;99.90;;;;;;5002701;28;20190;-95
2023/08/16 00:21:22;;;;;;;24.33;17.43;;;19.40;99.90;;;;;;5004608;28;20431;-96
2023/08/16 00:23:48;;;;;;;18.20;16.13;;;19.40;99.90;;;;;;5008456;28;20472;-96
2023/08/16 00:26:13;;;;;;;17.47;15.30;;;19.40;99.90;;;;;;5010102;28;20425;-96
2023/08/16 00:28:39;;;;;;;21.80;14.90;;;19.40;99.90;;;;;;4989144;28;20215;-95
2023/08/16 00:31:05;;;;;;;18.30;12.43;;;19.30;99.90;;;;;;5006092;28;20183;-95
2023/08/16 00:33:30;;;;;;;15.70;11.90;;;19.20;99.90;;;;;;5003533;28;20655;-96
2023/08/16 00:35:56;;;;;;;19.73;12.33;;;19.20;99.90;;;;;;5005154;28;20284;-96
2023/08/16 00:38:22;;;;;;;14.20;11.83;;;18.90;99.90;;;;;;5002975;28;20210;-96
2023/08/16 00:40:51;;;;;;;13.70;11.67;;;18.90;99.90;;;;;;5001285;28;20167;-96
2023/08/16 00:43:17;;;;;;;13.57;12.27;;;18.90;99.90;;;;;;4984856;28;20183;-96
2023/08/16 00:45:45;;;;;;;15.13;13.00;;;18.90;99.90;;;;;;5000193;28;20414;-96
2023/08/16 00:48:11;;;;;;;14.73;13.13;;;18.90;99.90;;;;;;5000168;28;20443;-96
2023/08/16 00:50:37;;;;;;;21.63;13.50;;;18.70;99.90;;;;;;4999996;28;20437;-96
2023/08/16 00:53:03;;;;;;;19.93;16.73;;;18.70;99.90;;;;;;4999250;28;20386;-95
2023/08/16 00:55:29;;;;;;;18.73;16.40;;;18.70;99.90;;;;;;5000881;28;20520;-96
2023/08/16 00:57:55;;;;;;;16.83;15.03;;;18.70;99.90;;;;;;5002462;28;20248;-96
2023/08/16 01:00:21;;;;;;;21.73;15.70;;;18.70;99.90;;;;;;4988461;28;20378;-95
2023/08/16 01:02:47;;;;;;;17.90;16.10;;;18.60;99.90;;;;;;4987058;28;20430;-95
2023/08/16 01:05:13;;;;;;;20.27;17.67;;;18.50;99.90;;;;;;5004305;28;20211;-95
2023/08/16 01:07:38;;;;;;;19.20;14.67;;;18.50;99.90;;;;;;5003089;28;20231;-88
2023/08/16 01:10:04;;;;;;;19.30;17.07;;;18.40;99.90;;;;;;5001413;28;20397;-95
2023/08/16 01:12:49;;;;;;;23.30;17.80;;;18.40;99.90;;;;;;5000041;28;20181;-96
2023/08/16 01:15:36;;;;;;;21.90;15.87;;;18.30;99.90;;;;;;4999821;28;20452;-96
2023/08/16 01:18:02;;;;;;;21.60;17.77;;;18.30;99.90;;;;;;4980474;28;20423;-95
2023/08/16 01:20:31;;;;;;;18.80;16.10;;;18.20;99.90;;;;;;4997627;28;20407;-95
2023/08/16 01:23:22;;;;;;;23.67;18.87;;;18.20;99.90;;;;;;4997092;28;20393;-95
2023/08/16 01:25:56;;;;;;;18.17;16.30;;;18.20;99.90;;;;;;4997644;28;20401;-95
2023/08/16 01:28:23;;;;;;;20.13;18.27;;;18.20;99.90;;;;;;4981329;28;20388;-96
2023/08/16 01:30:49;;;;;;;19.20;17.00;;;18.10;99.90;;;;;;4996384;28;20461;-95
2023/08/16 01:33:15;;;;;;;21.83;19.50;;;18.10;99.90;;;;;;4996191;28;20400;-94
2023/08/16 01:35:41;;;;;;;20.27;16.80;;;18.10;99.90;;;;;;4979747;28;20927;-92
2023/08/16 01:38:08;;;;;;;22.23;17.07;;;18.00;99.90;;;;;;4997834;28;20651;-95
2023/08/16 01:41:06;;;;;;;17.30;13.60;;;18.00;99.90;;;;;;4998015;28;20421;-95
2023/08/16 01:43:33;;;;;;;21.47;16.10;;;17.90;99.90;;;;;;4990439;28;20840;-95
2023/08/16 01:46:01;;;;;;;20.23;17.70;;;17.90;99.90;;;;;;4995676;28;20449;-94
2023/08/16 01:48:28;;;;;;;20.33;18.13;;;17.90;99.90;;;;;;4995655;28;20760;-94
2023/08/16 01:50:54;;;;;;;18.63;16.87;;;17.90;99.90;;;;;;4995333;28;20439;-94
2023/08/16 01:53:19;;;;;;;16.27;14.70;;;17.80;99.90;;;;;;4996416;28;20810;-96
2023/08/16 01:55:45;;;;;;;17.63;14.00;;;17.80;99.90;;;;;;4995697;28;20210;-94
2023/08/16 01:58:11;;;;;;;18.43;16.57;;;17.70;99.90;;;;;;4995577;28;20635;-95
2023/08/16 02:00:36;;;;;;;21.80;17.13;;;17.70;99.90;;;;;;4994587;28;20180;-94
2023/08/16 02:03:02;;;;;;;23.63;19.20;;;17.80;99.90;;;;;;4994923;28;20211;-95
2023/08/16 02:05:28;;;;;;;20.33;18.33;;;17.70;99.90;;;;;;4995396;28;20197;-94
2023/08/16 02:07:53;;;;;;;23.93;19.60;;;17.70;99.90;;;;;;4977355;28;20239;-94
2023/08/16 02:10:19;;;;;;;19.27;17.47;;;17.60;99.90;;;;;;4994693;28;20186;-96
2023/08/16 02:12:45;;;;;;;22.40;17.77;;;17.50;99.90;;;;;;4994701;28;20176;-96
2023/08/16 02:15:11;;;;;;;25.50;18.63;;;17.50;99.90;;;;;;5001260;28;20207;-96
2023/08/16 02:17:37;;;;;;;21.77;18.03;;;17.50;99.90;;;;;;4995812;28;20180;-96
2023/08/16 02:20:04;;;;;;;21.00;17.87;;;17.50;99.90;;;;;;4994430;28;20895;-96
2023/08/16 02:22:30;;;;;;;18.93;16.40;;;17.50;99.90;;;;;;4994914;28;20195;-96
2023/08/16 02:24:55;;;;;;;21.23;18.40;;;17.40;99.90;;;;;;4980616;28;20422;-96
2023/08/16 02:27:21;;;;;;;23.93;19.60;;;17.40;99.90;;;;;;4997956;28;20607;-95
2023/08/16 02:29:47;;;;;;;20.07;18.20;;;17.50;99.90;;;;;;4997855;28;20243;-96
2023/08/16 02:32:12;;;;;;;23.60;21.10;;;17.60;99.90;;;;;;4997917;28;20199;-96
2023/08/16 02:34:38;;;;;;;27.33;20.30;;;17.50;99.90;;;;;;4997725;28;20194;-95
2023/08/16 02:37:03;;;;;;;25.17;20.13;;;17.50;99.90;;;;;;4997695;28;20318;-96
2023/08/16 02:39:30;;;;;;;22.27;18.93;;;17.50;99.90;;;;;;4997867;28;20183;-96
2023/08/16 02:41:55;;;;;;;30.70;20.20;;;17.50;99.90;;;;;;4997452;28;20179;-95
2023/08/16 02:44:21;;;;;;;20.47;18.10;;;17.50;99.90;;;;;;4997700;28;20414;-96
2023/08/16 02:46:47;;;;;;;24.13;20.00;;;17.50;99.90;;;;;;4997371;28;20656;-96
2023/08/16 02:49:12;;;;;;;26.27;20.40;;;17.50;99.90;;;;;;4997524;28;20231;-95
2023/08/16 02:51:38;;;;;;;22.17;19.80;;;17.40;99.90;;;;;;4997595;28;20191;-96
2023/08/16 02:54:06;;;;;;;23.10;20.63;;;17.50;99.90;;;;;;4997150;28;20172;-96
2023/08/16 02:56:31;;;;;;;24.53;20.77;;;17.50;99.90;;;;;;4997338;28;20203;-96
2023/08/16 02:58:57;;;;;;;24.60;20.83;;;17.60;99.90;;;;;;4996899;28;20422;-95
2023/08/16 03:01:22;;;;;;;25.83;21.20;;;17.50;99.90;;;;;;4997112;28;20267;-96
2023/08/16 03:03:48;;;;;;;24.40;20.20;;;17.50;99.90;;;;;;4997457;28;20179;-95
2023/08/16 03:06:14;;;;;;;27.90;20.90;;;17.60;99.90;;;;;;4996852;28;20184;-95
2023/08/16 03:08:39;;;;;;;23.50;20.07;;;17.70;99.90;;;;;;4996675;28;20254;-96
2023/08/16 03:11:05;;;;;;;25.93;19.83;;;17.60;99.90;;;;;;4996698;28;20727;-96
2023/08/16 03:13:31;;;;;;;25.43;20.20;;;17.70;99.90;;;;;;4997207;28;20191;-95
2023/08/16 03:15:56;;;;;;;24.03;21.33;;;17.70;99.90;;;;;;4996758;28;20436;-96
2023/08/16 03:18:22;;;;;;;24.70;22.00;;;17.70;99.90;;;;;;4996702;28;20211;-95
2023/08/16 03:20:47;;;;;;;26.17;20.23;;;17.90;99.90;;;;;;4979752;28;20191;-95
2023/08/16 03:23:13;;;;;;;22.07;19.70;;;17.90;99.90;;;;;;4979710;28;20278;-96
2023/08/16 03:25:39;;;;;;;23.13;20.70;;;17.90;99.90;;;;;;4996991;28;20187;-96
2023/08/16 03:28:04;;;;;;;24.93;19.23;;;18.00;99.90;;;;;;4996734;28;20176;-96
2023/08/16 03:30:30;;;;;;;23.57;19.80;;;18.10;99.90;;;;;;4996683;28;20263;-96
2023/08/16 03:32:56;;;;;;;25.97;21.60;;;18.10;99.90;;;;;;4996826;28;20628;-96
2023/08/16 03:35:21;;;;;;;21.83;19.30;;;18.10;99.90;;;;;;4996444;28;20222;-96
2023/08/16 03:37:47;;;;;;;25.30;19.60;;;17.90;99.90;;;;;;4996968;28;20199;-90
2023/08/16 03:40:14;;;;;;;22.07;19.77;;;18.10;99.90;;;;;;4997036;28;20186;-96
2023/08/16 03:42:40;;;;;;;21.30;19.10;;;18.00;99.90;;;;;;4996998;28;20175;-96
2023/08/16 03:45:06;;;;;;;20.30;18.00;;;18.10;99.90;;;;;;4996307;28;20406;-96
2023/08/16 03:47:32;;;;;;;26.13;20.63;;;18.00;99.90;;;;;;4996685;28;20167;-96
2023/08/16 03:49:59;;;;;;;24.03;19.90;;;18.10;99.90;;;;;;4996378;28;20389;-96
2023/08/16 03:52:26;;;;;;;21.83;19.47;;;18.10;99.90;;;;;;4997308;28;20446;-96
2023/08/16 03:54:53;;;;;;;26.10;19.40;;;18.10;99.90;;;;;;4997756;28;20389;-96
2023/08/16 03:57:19;;;;;;;30.20;20.50;;;18.10;99.90;;;;;;4980707;28;20409;-96
2023/08/16 03:59:45;;;;;;;24.77;21.70;;;18.10;99.90;;;;;;5001619;28;20436;-96
2023/08/16 04:02:10;;;;;;;24.30;21.00;;;18.20;99.90;;;;;;4979163;28;20193;-96
2023/08/16 04:04:36;;;;;;;24.17;21.70;;;18.20;99.90;;;;;;4996198;28;20191;-96
2023/08/16 04:07:01;;;;;;;23.20;20.17;;;18.20;99.90;;;;;;4979045;28;20545;-96
2023/08/16 04:09:27;;;;;;;24.13;19.93;;;18.10;99.90;;;;;;4996868;28;20234;-96
2023/08/16 04:11:53;;;;;;;25.80;20.33;;;18.10;99.90;;;;;;4996226;28;20289;-96
2023/08/16 04:14:18;;;;;;;22.77;19.10;;;18.10;99.90;;;;;;4996379;28;20234;-96
2023/08/16 04:16:44;;;;;;;29.60;19.90;;;18.20;99.90;;;;;;4996520;28;20559;-96
2023/08/16 04:19:09;;;;;;;26.00;19.10;;;18.30;99.90;;;;;;4996675;28;20194;-96
2023/08/16 04:21:35;;;;;;;30.13;20.17;;;18.30;99.90;;;;;;4963871;28;20543;-96
2023/08/16 04:24:00;;;;;;;22.70;18.77;;;18.20;99.90;;;;;;5002933;28;20198;-95
2023/08/16 04:26:26;;;;;;;22.77;18.80;;;18.20;99.90;;;;;;5011634;28;20636;-95
2023/08/16 04:28:52;;;;;;;22.97;19.93;;;18.20;99.90;;;;;;5012727;28;20247;-93
2023/08/16 04:31:17;;;;;;;22.03;19.73;;;18.10;99.90;;;;;;5007179;28;20186;-96
2023/08/16 04:33:43;;;;;;;22.07;19.60;;;18.20;99.90;;;;;;4996211;28;20180;-96
2023/08/16 04:36:08;;;;;;;25.77;19.47;;;18.20;99.90;;;;;;4978016;28;20222;-96
2023/08/16 04:38:34;;;;;;;24.00;18.30;;;18.20;99.90;;;;;;4996597;28;20621;-96
2023/08/16 04:40:59;;;;;;;28.27;19.60;;;18.20;99.90;;;;;;4995659;28;20183;-96
2023/08/16 04:43:25;;;;;;;21.10;17.07;;;18.20;99.90;;;;;;4978366;28;20548;-96
2023/08/16 04:45:51;;;;;;;22.80;17.93;;;18.20;99.90;;;;;;4995733;28;20195;-96
2023/08/16 04:48:16;;;;;;;24.00;17.50;;;18.10;99.90;;;;;;4995179;28;20542;-96
2023/08/16 04:50:42;;;;;;;21.67;15.73;;;18.20;99.90;;;;;;4995445;28;20735;-96
2023/08/16 04:53:07;;;;;;;22.20;17.37;;;18.20;99.90;;;;;;4995545;28;20202;-96
2023/08/16 04:55:33;;;;;;;24.03;15.80;;;18.30;99.90;;;;;;4994988;28;20210;-96
2023/08/16 04:57:58;;;;;;;18.83;15.27;;;18.30;99.90;;;;;;4978142;28;20282;-96
2023/08/16 05:00:25;;;;;;;20.27;16.47;;;18.30;99.90;;;;;;4977806;28;20184;-93
2023/08/16 05:02:50;;;;;;;21.00;15.77;;;18.30;99.90;;;;;;4978347;28;20643;-93
2023/08/16 05:05:16;;;;;;;17.10;14.97;;;18.40;99.90;;;;;;4994936;28;20410;-93
2023/08/16 05:07:41;;;;;;;20.90;16.30;;;18.40;99.90;;;;;;4995036;28;20761;-94
2023/08/16 05:10:07;;;;;;;22.47;17.03;;;18.50;99.90;;;;;;4994706;28;20171;-94
2023/08/16 05:12:33;;;;;;;33.00;15.67;;;18.50;99.90;;;;;;4994686;28;20522;-94
2023/08/16 05:14:58;;;;;;;19.50;15.60;;;18.60;99.90;;;;;;4994608;28;20405;-93
2023/08/16 05:17:24;;;;;;;19.13;14.47;;;18.50;99.90;;;;;;4994631;28;20183;-94
2023/08/16 05:19:50;;;;;;;21.87;14.37;;;18.50;99.90;;;;;;4977888;28;20234;-94
2023/08/16 05:22:15;;;;;;;14.27;12.07;;;18.60;99.90;;;;;;4995013;28;20211;-94
2023/08/16 05:24:41;;;;;;;19.03;14.70;;;18.50;99.90;;;;;;4978071;28;20183;-93
2023/08/16 05:27:12;;;;;;;16.83;14.13;;;18.50;99.90;;;;;;4995262;28;20180;-94
2023/08/16 05:29:39;;;;;;;23.83;15.90;;;18.50;99.90;;;;;;4995144;28;20694;-93
2023/08/16 05:32:04;;;;;;;22.23;15.73;;;18.50;99.90;;;;;;4994854;28;20432;-94
2023/08/16 05:34:30;;;;;;;19.73;15.70;;;18.60;99.90;;;;;;4995119;28;20471;-94
2023/08/16 05:36:56;;;;;;;25.90;13.70;;;18.60;99.90;;;;;;4994805;28;20227;-93
2023/08/16 05:39:22;;;;;;;16.20;14.03;;;18.70;99.90;;;;;;4995251;28;20548;-94
2023/08/16 05:41:48;;;;;;;17.50;14.27;;;18.80;99.90;;;;;;4977971;28;20179;-93
2023/08/16 05:44:13;;;;;;;17.67;12.73;;;18.70;99.90;;;;;;4994764;28;20433;-94
2023/08/16 05:46:39;;;;;;;19.33;14.57;;;18.80;99.90;;;;;;4994907;28;20183;-93
2023/08/16 05:49:07;;;;;;;16.47;14.80;;;18.80;99.90;;;;;;4995154;28;20539;-94
2023/08/16 05:51:33;;;;;;;16.53;14.17;;;18.80;99.90;;;;;;4995387;28;20749;-96
2023/08/16 05:53:59;;;;;;;18.53;14.67;;;18.90;99.90;;;;;;4995003;28;20486;-93
2023/08/16 05:56:25;;;;;;;16.97;14.73;;;19.00;99.90;;;;;;4995145;28;20195;-93
2023/08/16 05:58:50;;;;;;;15.67;13.87;;;19.00;99.90;;;;;;4997094;28;20440;-94
2023/08/16 06:01:16;;;;;;;16.57;11.80;;;19.00;99.90;;;;;;4998429;28;20525;-92
2023/08/16 06:03:41;;;;;;;21.33;15.10;;;19.10;99.90;;;;;;4998214;28;20270;-93
2023/08/16 06:06:07;;;;;;;14.00;11.23;;;19.10;99.90;;;;;;4998615;28;20194;-94
2023/08/16 06:08:33;;;;;;;16.80;13.80;;;19.00;99.90;;;;;;4999020;28;20227;-93
2023/08/16 06:10:58;;;;;;;18.47;14.33;;;19.20;99.90;;;;;;4980885;28;20639;-94
2023/08/16 06:13:25;;;;;;;18.77;12.13;;;19.20;99.90;;;;;;4983295;28;20184;-95
2023/08/16 06:15:51;;;;;;;17.20;14.30;;;19.20;99.90;;;;;;5001289;28;20199;-94
2023/08/16 06:18:17;;;;;;;14.03;12.63;;;19.30;99.90;;;;;;5000286;28;20401;-95
2023/08/16 06:20:43;;;;;;;20.23;13.80;;;19.30;99.90;;;;;;4999685;28;20432;-94
2023/08/16 06:23:10;;;;;;;20.80;13.50;;;19.30;99.90;;;;;;4981526;28;20175;-94
2023/08/16 06:25:35;;;;;;;19.20;14.60;;;19.30;99.90;;;;;;5001247;28;20199;-95
2023/08/16 06:28:01;;;;;;;15.73;14.00;;;19.30;99.90;;;;;;4998894;28;20423;-94
2023/08/16 06:30:27;;;;;;;16.47;14.67;;;19.40;99.90;;;;;;5002179;28;20179;-94
2023/08/16 06:32:53;;;;;;;18.50;15.87;;;19.40;99.90;;;;;;4967173;28;20255;-93
2023/08/16 06:35:19;;;;;;;20.90;14.87;;;19.50;99.90;;;;;;4998360;28;20209;-95
2023/08/16 06:37:46;;;;;;;20.83;15.43;;;19.50;99.90;;;;;;4999965;28;20874;-94
2023/08/16 06:40:12;;;;;;;19.90;14.40;;;19.50;99.90;;;;;;5000365;28;20210;-95
2023/08/16 06:42:39;;;;;;;20.63;16.80;;;19.50;99.90;;;;;;4999592;28;20759;-92
2023/08/16 06:45:06;;;;;;;20.73;16.47;;;19.40;99.90;;;;;;4998107;28;20386;-92
2023/08/16 06:47:32;;;;;;;17.47;15.33;;;19.50;99.90;;;;;;4981294;28;20471;-90
2023/08/16 06:49:57;;;;;;;18.03;15.77;;;19.50;99.90;;;;;;4999455;28;20407;-92
2023/08/16 06:52:23;;;;;;;20.37;15.30;;;19.60;99.90;;;;;;5001029;28;20242;-92
2023/08/16 06:54:49;;;;;;;20.67;15.30;;;19.70;99.90;;;;;;5003126;28;20522;-92
2023/08/16 06:57:14;;;;;;;19.43;15.47;;;19.60;99.90;;;;;;5001444;28;20250;-92
2023/08/16 06:59:41;;;;;;;17.53;14.07;;;19.60;99.90;;;;;;5002348;28;20175;-92
2023/08/16 07:02:10;;;;;;;15.13;13.30;;;19.50;99.90;;;;;;4969065;28;20179;-92
2023/08/16 07:04:38;;;;;;;16.93;14.37;;;19.60;99.90;;;;;;5004118;28;20415;-92
2023/08/16 07:07:07;;;;;;;19.17;13.93;;;19.70;99.90;;;;;;5003811;28;20458;-91
2023/08/16 07:09:33;;;;;;;16.70;14.37;;;19.80;99.90;;;;;;5007380;28;20776;-92
2023/08/16 07:11:58;;;;;;;19.50;15.07;;;19.80;99.90;;;;;;5003396;28;20442;-92
2023/08/16 07:14:24;;;;;;;15.10;13.40;;;19.90;99.90;;;;;;4993276;28;20184;-91
2023/08/16 07:16:51;;;;;;;19.70;15.50;;;19.90;99.90;;;;;;4985483;28;20218;-93
2023/08/16 07:19:17;;;;;;;19.60;14.90;;;20.00;99.90;;;;;;4998825;28;20262;-92
2023/08/16 07:21:43;;;;;;;16.40;13.93;;;20.00;99.90;;;;;;5001727;28;20389;-92
2023/08/16 07:24:08;;;;;;;17.27;15.47;;;20.10;99.90;;;;;;4998273;28;20412;-92
2023/08/16 07:26:34;;;;;;;21.70;14.27;;;20.00;99.90;;;;;;4981694;28;20191;-93
2023/08/16 07:29:00;;;;;;;19.23;15.63;;;20.10;99.90;;;;;;4998020;28;20180;-92
2023/08/16 07:31:28;;;;;;;16.77;14.97;;;20.00;99.90;;;;;;4981543;28;20184;-93
2023/08/16 07:33:53;;;;;;;20.47;16.53;;;20.10;99.90;;;;;;4999464;28;20237;-92
2023/08/16 07:36:24;;;;;;;21.07;18.90;;;20.10;99.90;;;;;;4987369;28;20497;-93
2023/08/16 07:38:50;;;;;;;22.37;17.00;;;20.30;99.90;;;;;;5007485;28;20190;-93
2023/08/16 07:41:15;;;;;;;19.53;17.47;;;20.40;99.90;;;;;;4998834;28;20399;-93
2023/08/16 07:43:41;;;;;;;19.90;15.30;;;20.50;99.90;;;;;;4997133;28;20176;-93
2023/08/16 07:46:07;;;;;;;18.77;15.50;;;20.80;99.90;;;;;;4979582;28;20188;-94
2023/08/16 07:48:32;;;;;;;16.10;14.40;;;21.00;99.90;;;;;;4996843;28;20191;-93
2023/08/16 07:50:58;;;;;;;15.57;12.67;;;21.10;99.90;;;;;;5000040;28;20180;-93
2023/08/16 07:53:24;;;;;;;16.33;12.97;;;21.30;99.90;;;;;;4996759;28;20179;-92
2023/08/16 07:55:49;;;;;;;18.23;14.50;;;21.50;99.90;;;;;;4979100;28;20660;-94
2023/08/16 07:58:15;;;;;;;17.77;13.10;;;21.70;99.90;;;;;;4996418;28;20183;-93
2023/08/16 08:00:42;;;;;;;18.43;14.73;;;21.60;99.90;;;;;;4997389;28;20274;-94
2023/08/16 08:03:09;;;;;;;20.70;14.60;;;21.40;99.90;;;;;;4996362;28;20415;-94
2023/08/16 08:05:36;;;;;;;18.73;15.37;;;21.50;99.90;;;;;;4996596;28;20397;-94
2023/08/16 08:08:08;;;;;;;13.57;11.87;;;21.50;99.90;;;;;;4998764;28;20485;-94
2023/08/16 08:10:46;;;;;;;21.20;12.20;;;21.60;99.90;;;;;;4975603;26;20857;-95
2023/08/16 08:13:12;;;;;;;13.13;11.73;;;21.60;99.90;;;;;;4978925;28;20431;-95
2023/08/16 08:15:37;;;;;;;16.30;13.77;;;21.80;99.90;;;;;;4977208;28;20442;-95
2023/08/16 08:18:04;;;;;;;14.70;13.20;;;21.90;99.90;;;;;;4977673;28;20219;-96
2023/08/16 08:20:30;;;;;;;19.80;15.10;;;22.10;99.90;;;;;;4977832;28;20523;-94
2023/08/16 08:22:55;;;;;;;16.13;12.67;;;22.00;99.90;;;;;;4978846;28;20408;-96
2023/08/16 08:25:22;;;;;;;16.57;14.03;;;21.80;99.90;;;;;;4959680;28;20195;-95
2023/08/16 08:27:47;;;;;;;15.27;13.87;;;21.80;99.90;;;;;;4944488;28;20215;-95
2023/08/16 08:30:15;;;;;;;15.93;14.03;;;21.90;99.90;;;;;;4977791;28;20423;-95
2023/08/16 08:32:41;;;;;;;15.80;13.53;;;22.00;99.90;;;;;;4977446;28;20184;-95
2023/08/16 08:35:07;;;;;;;19.57;14.20;;;21.90;99.90;;;;;;4976892;28;20426;-95
2023/08/16 08:37:32;;;;;;;17.57;15.50;;;22.00;99.90;;;;;;4977193;28;20172;-94
2023/08/16 08:39:58;;;;;;;22.13;15.70;;;22.30;99.90;;;;;;4977098;28;20184;-95
2023/08/16 08:42:24;;;;;;;17.30;14.30;;;22.60;99.90;;;;;;4975960;28;20184;-94
2023/08/16 08:44:50;;;;;;;15.90;14.20;;;22.50;99.90;;;;;;4959252;28;20696;-95
2023/08/16 08:47:17;;;;;;;16.83;14.83;;;22.80;99.90;;;;;;4976241;28;20447;-94
2023/08/16 08:49:42;;;;;;;17.33;15.63;;;23.10;99.90;;;;;;4943537;28;20915;-94
2023/08/16 08:52:09;;;;;;;18.30;15.03;;;23.20;99.90;;;;;;4976104;28;20471;-95
2023/08/16 08:54:35;;;;;;;21.80;18.13;;;23.40;99.90;;;;;;4959468;28;20188;-92
2023/08/16 08:57:04;;;;;;;19.60;15.73;;;23.40;99.90;;;;;;4976946;28;20506;-93
2023/08/16 08:59:33;;;;;;;18.33;16.43;;;23.20;99.90;;;;;;4959398;28;20425;-92
2023/08/16 09:01:59;;;;;;;18.60;16.70;;;23.30;99.90;;;;;;4979563;28;20448;-92
2023/08/16 09:04:26;;;;;;;18.43;16.43;;;23.00;99.90;;;;;;4977908;28;20412;-94
2023/08/16 09:06:53;;;;;;;23.83;18.20;;;23.20;99.90;;;;;;4978658;28;20415;-93
2023/08/16 09:09:21;;;;;;;21.80;17.93;;;23.20;99.90;;;;;;4978470;28;20470;-95
2023/08/16 09:11:48;;;;;;;19.63;17.00;;;23.10;99.90;;;;;;4977632;28;20502;-91
2023/08/16 09:14:14;;;;;;;21.90;18.27;;;23.30;99.90;;;;;;4959979;28;20505;-93
2023/08/16 09:16:39;;;;;;;20.53;18.57;;;23.60;99.90;;;;;;4979486;28;20663;-93
2023/08/16 09:19:15;;;;;;;17.67;15.77;;;23.80;99.90;;;;;;4980113;28;20180;-93
2023/08/16 09:21:44;;;;;;;22.50;17.93;;;23.60;99.90;;;;;;4979215;28;20179;-93
2023/08/16 09:24:09;;;;;;;22.57;17.00;;;23.90;99.90;;;;;;4976452;28;20466;-93
2023/08/16 09:26:39;;;;;;;20.47;18.47;;;24.00;99.90;;;;;;4975867;28;20431;-92
2023/08/16 09:29:05;;;;;;;21.10;17.60;;;23.90;99.90;;;;;;4976090;28;20203;-92
2023/08/16 09:31:37;;;;;;;19.83;17.73;;;23.80;99.90;;;;;;4975626;28;20423;-92
2023/08/16 09:34:03;;;;;;;21.70;19.50;;;23.90;99.90;;;;;;4980156;28;20188;-93
2023/08/16 09:36:30;;;;;;;24.47;21.97;;;23.90;99.90;;;;;;4981816;28;20466;-94
2023/08/16 09:39:00;;;;;;;20.80;17.67;;;23.50;99.90;;;;;;4981132;28;20515;-92
2023/08/16 09:41:27;;;;;;;19.87;17.87;;;23.50;99.90;;;;;;4963071;28;20486;-93
2023/08/16 09:44:00;;;;;;;21.50;18.33;;;23.70;99.90;;;;;;4981510;28;20424;-93
2023/08/16 09:46:26;;;;;;;24.37;21.60;;;23.80;99.90;;;;;;4981176;28;20458;-94
2023/08/16 09:48:52;;;;;;;22.27;19.83;;;23.90;99.90;;;;;;4985138;28;20411;-93
2023/08/16 09:51:18;;;;;;;23.37;20.03;;;23.80;99.90;;;;;;4982362;28;20531;-93
2023/08/16 09:53:47;;;;;;;22.13;19.90;;;23.80;99.90;;;;;;4983663;28;20647;-93
2023/08/16 09:56:14;;;;;;;25.80;22.77;;;23.90;99.90;;;;;;4984077;28;20231;-93
2023/08/16 09:58:40;;;;;;;23.80;20.37;;;23.80;99.90;;;;;;4981387;28;20518;-93
2023/08/16 10:01:06;;;;;;;19.57;17.57;;;23.80;99.90;;;;;;4981940;28;20401;-91
2023/08/16 10:03:33;;;;;;;24.50;20.50;;;23.60;99.90;;;;;;4979837;28;20621;-94
2023/08/16 10:06:00;;;;;;;24.80;21.80;;;23.70;99.90;;;;;;4963138;28;20427;-93
2023/08/16 10:08:27;;;;;;;24.40;21.23;;;23.80;99.90;;;;;;4961174;28;20416;-94
2023/08/16 10:10:54;;;;;;;22.03;19.40;;;24.00;99.90;;;;;;4980695;28;20403;-93
2023/08/16 10:13:22;;;;;;;23.70;20.73;;;24.20;99.90;;;;;;4982556;28;20474;-93
2023/08/16 10:15:49;;;;;;;27.27;23.60;;;24.30;99.90;;;;;;4980937;28;20470;-94
2023/08/16 10:18:19;;;;;;;25.50;22.80;;;23.90;99.90;;;;;;4978846;28;20427;-93
2023/08/16 10:20:48;;;;;;;26.17;21.73;;;23.80;99.90;;;;;;4980829;28;20406;-94
2023/08/16 10:23:18;;;;;;;24.63;20.77;;;23.80;99.90;;;;;;4979610;28;20733;-93
2023/08/16 10:25:48;;;;;;;24.03;20.30;;;24.00;99.90;;;;;;4982220;28;20407;-96
2023/08/16 10:28:19;;;;;;;23.93;21.53;;;23.70;99.90;;;;;;4981164;28;20425;-94
2023/08/16 10:30:46;;;;;;;22.33;18.43;;;23.50;99.90;;;;;;4980861;28;20438;-94
2023/08/16 10:33:30;;;;;;;22.13;19.87;;;23.70;99.90;;;;;;4981415;28;20803;-91
2023/08/16 10:35:56;;;;;;;20.13;18.30;;;23.90;99.90;;;;;;4980431;28;20545;-94
2023/08/16 10:38:22;;;;;;;23.10;17.33;;;24.10;99.90;;;;;;4981187;28;20935;-94
2023/08/16 10:40:58;;;;;;;23.37;20.10;;;24.30;99.90;;;;;;4982973;28;20412;-94
2023/08/16 10:43:32;;;;;;;21.47;19.40;;;24.20;99.90;;;;;;4982384;28;20412;-96
2023/08/16 10:45:58;;;;;;;21.37;19.07;;;24.10;99.90;;;;;;4986143;28;20426;-96
2023/08/16 10:48:26;;;;;;;19.83;17.83;;;24.20;99.90;;;;;;4993280;28;20447;-96
2023/08/16 10:50:57;;;;;;;23.23;19.23;;;24.40;99.90;;;;;;4990534;28;20411;-96
2023/08/16 10:53:27;;;;;;;20.43;18.40;;;24.50;99.90;;;;;;4968034;28;20424;-95
2023/08/16 10:55:55;;;;;;;20.20;17.37;;;24.70;99.90;;;;;;4982463;28;20462;-95
2023/08/16 10:58:24;;;;;;;19.70;17.77;;;24.90;99.90;;;;;;4980300;28;20411;-96
2023/08/16 11:00:59;;;;;;;20.87;17.47;;;25.10;99.90;;;;;;4983685;28;20893;-95
2023/08/16 11:03:37;;;;;;;18.50;16.60;;;25.60;99.90;;;;;;4966775;28;20896;-95
2023/08/16 11:06:09;;;;;;;16.73;14.93;;;25.90;99.90;;;;;;4992113;28;20408;-95
2023/08/16 11:08:38;;;;;;;16.00;14.00;;;26.70;99.90;;;;;;4982371;28;20433;-94
2023/08/16 11:11:03;;;;;;;15.40;14.00;;;27.50;99.90;;;;;;4979751;28;20481;-94
2023/08/16 11:13:29;;;;;;;11.53;10.47;;;27.90;99.90;;;;;;4979781;28;20416;-94
2023/08/16 11:15:56;;;;;;;14.53;13.20;;;28.20;99.90;;;;;;4969544;28;20678;-95
2023/08/16 11:18:34;;;;;;;15.30;13.70;;;28.20;99.90;;;;;;4988059;28;20183;-95
2023/08/16 11:21:00;;;;;;;15.53;12.63;;;28.40;99.90;;;;;;4989250;28;20435;-95
2023/08/16 11:23:36;;;;;;;13.13;11.93;;;27.40;99.90;;;;;;4988174;28;20416;-96
2023/08/16 11:26:04;;;;;;;15.33;13.73;;;26.90;99.90;;;;;;4990127;28;20399;-96
2023/08/16 11:28:31;;;;;;;14.60;13.30;;;26.50;99.90;;;;;;4995531;28;20399;-95
2023/08/16 11:31:03;;;;;;;14.97;13.60;;;26.60;99.90;;;;;;4992090;28;20426;-96
2023/08/16 11:33:37;;;;;;;15.80;14.27;;;26.80;99.90;;;;;;4974894;28;20443;-95
2023/08/16 11:36:07;;;;;;;15.87;14.40;;;26.30;99.90;;;;;;4985006;28;20478;-96
2023/08/16 11:38:38;;;;;;;15.43;13.90;;;25.90;99.90;;;;;;5284227;23;20490;-96
2023/08/16 11:41:05;;;;;;;15.20;13.80;;;26.40;99.90;;;;;;5011522;28;20405;-93
2023/08/16 11:43:34;;;;;;;16.90;15.30;;;26.20;99.90;;;;;;4987039;28;20418;-95
2023/08/16 11:46:02;;;;;;;15.50;13.37;;;26.30;99.90;;;;;;4995564;28;20421;-96
2023/08/16 11:48:31;;;;;;;14.17;12.63;;;26.40;99.90;;;;;;5013981;28;20458;-96
2023/08/16 11:51:01;;;;;;;15.33;13.80;;;26.50;99.90;;;;;;5016363;28;20389;-95
2023/08/16 11:53:36;;;;;;;15.23;13.73;;;26.70;99.90;;;;;;5009298;28;20458;-94
2023/08/16 11:56:07;;;;;;;13.33;12.10;;;26.50;99.90;;;;;;4992687;28;20496;-96
2023/08/16 11:58:47;;;;;;;16.47;12.60;;;27.10;99.90;;;;;;5007872;28;20793;-94
2023/08/16 12:01:16;;;;;;;14.50;13.10;;;27.40;99.90;;;;;;5010989;28;20425;-96
2023/08/16 12:03:46;;;;;;;15.60;13.40;;;27.40;99.90;;;;;;5008419;28;20494;-96
2023/08/16 12:06:12;;;;;;;15.47;13.87;;;27.00;99.90;;;;;;5004669;28;20403;-96
2023/08/16 12:08:52;;;;;;;14.80;13.30;;;26.60;99.90;;;;;;5003546;28;20954;-94
2023/08/16 12:11:32;;;;;;;15.33;13.93;;;26.60;99.90;;;;;;4973076;28;20411;-89
2023/08/16 12:14:03;;;;;;;14.83;13.33;;;26.90;99.90;;;;;;5003572;28;20422;-96
2023/08/16 12:16:31;;;;;;;15.70;14.20;;;26.80;99.90;;;;;;5003710;28;20454;-96
2023/08/16 12:18:57;;;;;;;13.77;12.57;;;26.70;99.90;;;;;;5003372;28;20457;-95
2023/08/16 12:21:23;;;;;;;13.57;12.27;;;26.20;99.90;;;;;;5001789;28;20411;-96
2023/08/16 12:23:49;;;;;;;15.10;13.57;;;26.20;99.90;;;;;;5002194;28;20457;-96
2023/08/16 12:26:15;;;;;;;12.73;11.50;;;25.80;99.90;;;;;;5003032;28;20175;-95
2023/08/16 12:28:41;;;;;;;13.60;11.43;;;26.30;99.90;;;;;;4967334;28;20458;-95
2023/08/16 12:31:07;;;;;;;13.40;10.83;;;26.90;99.90;;;;;;5002395;28;20502;-95